Time;durP1;ratioP1;P1;durP2;ratioP2;P2;SDS_P1;SDS_P2;PMS_P1;PMS_P2;Temp;Humidity;BMP_temperature;BMP_pressure;BME280_temperature;BME280_humidity;BME280_pressure;Samples;Min_cycle;Max_cycle;Signal;HPM_P1;HPM_P2
2022/07/14 04:22:42;;;;;;;5.45;3.00;;;;;;;15.60;86.06;100444.41;5109658;27;20327;-75
2022/07/14 04:25:12;;;;;;;;;;;;;;;15.58;86.08;100451.81;5091819;28;20028;-75
2022/07/14 04:27:38;;;;;;;4.63;2.83;;;;;;;15.56;86.62;100452.03;5108040;28;19969;-75
2022/07/14 04:30:07;;;;;;;5.78;2.60;;;;;;;15.61;86.31;100446.06;5107759;28;20050;-75
2022/07/14 04:32:33;;;;;;;7.07;2.53;;;;;;;15.64;85.46;100440.31;5108373;28;20036;-75
2022/07/14 04:34:59;;;;;;;6.55;2.92;;;;;;;15.80;84.48;100449.88;5107912;28;20060;-75
2022/07/14 04:37:26;;;;;;;4.25;2.53;;;;;;;15.77;85.62;100451.09;5107857;28;20051;-75
2022/07/14 04:39:54;;;;;;;6.53;2.33;;;;;;;15.93;84.86;100452.59;5107535;28;20441;-75
2022/07/14 04:42:21;;;;;;;3.88;2.92;;;;;;;15.90;85.42;100456.50;5108954;28;20412;-76
2022/07/14 04:44:47;;;;;;;4.88;2.50;;;;;;;15.91;85.74;100465.38;5108209;28;20051;-73
2022/07/14 04:47:12;;;;;;;4.32;2.35;;;;;;;15.86;85.06;100471.38;5107565;28;20032;-74
2022/07/14 04:52:23;;;;;;;6.07;2.47;;;;;;;16.02;84.87;100460.25;5107611;28;20038;-74
2022/07/14 04:54:58;;;;;;;6.43;2.92;;;;;;;16.08;84.01;100457.78;5107430;28;20039;-74
2022/07/14 04:57:42;;;;;;;5.72;2.45;;;;;;;16.11;84.00;100457.38;5107725;28;20050;-74
2022/07/14 05:00:13;;;;;;;7.05;2.40;;;;;;;16.09;84.45;100446.81;5107087;28;20037;-74
2022/07/14 05:02:39;;;;;;;6.50;2.53;;;;;;;16.15;83.11;100447.88;5107280;28;20032;-74
2022/07/14 05:05:05;;;;;;;6.20;2.80;;;;;;;16.19;84.49;100444.56;5107261;28;20489;-74
2022/07/14 05:07:32;;;;;;;6.28;2.65;;;;;;;16.23;86.25;100442.28;5107094;28;20079;-74
2022/07/14 05:10:00;;;;;;;6.18;2.55;;;;;;;16.35;82.57;100439.81;5090390;28;20031;-74
2022/07/14 05:12:27;;;;;;;8.85;3.30;;;;;;;16.50;83.53;100435.09;5107066;28;20035;-74
2022/07/14 05:14:54;;;;;;;4.85;3.10;;;;;;;16.64;83.51;100433.22;5107153;28;20051;-74
2022/07/14 05:17:20;;;;;;;4.03;2.50;;;;;;;16.78;83.04;100434.88;5107019;28;20036;-74
2022/07/14 05:19:53;;;;;;;3.40;2.33;;;;;;;16.98;82.30;100430.28;5106845;28;20067;-74
2022/07/14 05:22:19;;;;;;;4.00;2.53;;;;;;;17.16;81.01;100424.25;5089926;28;20059;-74
2022/07/14 05:24:45;;;;;;;5.88;2.45;;;;;;;17.35;79.53;100423.34;5106965;28;20143;-74
2022/07/14 05:27:11;;;;;;;3.53;2.53;;;;;;;17.51;77.00;100422.03;5106782;28;20036;-75
2022/07/14 05:29:38;;;;;;;5.10;3.28;;;;;;;17.61;76.27;100421.56;5089735;28;20039;-74
2022/07/14 05:32:05;;;;;;;7.97;2.72;;;;;;;17.73;76.46;100424.44;5104680;28;20119;-74
2022/07/14 05:34:31;;;;;;;6.53;2.70;;;;;;;17.84;75.46;100426.44;5093071;28;20504;-75
2022/07/14 05:36:59;;;;;;;7.90;2.78;;;;;;;17.99;73.97;100424.25;5093154;28;20420;-74
2022/07/14 05:39:24;;;;;;;7.63;2.58;;;;;;;18.18;70.72;100425.19;5092969;28;20036;-75
2022/07/14 05:41:50;;;;;;;4.40;2.50;;;;;;;18.31;69.49;100432.34;5092943;28;20538;-75
2022/07/14 05:44:16;;;;;;;8.10;2.63;;;;;;;18.44;67.35;100437.63;5093144;28;20040;-75
2022/07/14 05:46:41;;;;;;;12.27;3.95;;;;;;;18.59;66.95;100434.63;5092961;28;20036;-74
2022/07/14 05:49:07;;;;;;;16.92;3.83;;;;;;;18.65;67.66;100434.56;5093868;28;20093;-75
2022/07/14 05:51:33;;;;;;;18.65;3.47;;;;;;;18.70;68.00;100429.34;5092898;28;20093;-75
2022/07/14 05:53:58;;;;;;;18.33;3.78;;;;;;;18.79;69.10;100429.06;5092730;28;20421;-74
2022/07/14 05:56:26;;;;;;;16.23;3.97;;;;;;;18.88;68.96;100433.13;5092654;28;20032;-75
2022/07/14 05:58:53;;;;;;;15.70;3.42;;;;;;;18.95;69.47;100425.78;5093597;28;20036;-75
2022/07/14 06:01:20;;;;;;;14.70;3.92;;;;;;;19.08;68.33;100424.81;5092342;28;20131;-60
2022/07/14 06:03:53;;;;;;;19.70;3.35;;;;;;;19.29;66.25;100421.66;5093089;28;20085;-49
2022/07/14 06:06:20;;;;;;;9.88;3.28;;;;;;;19.40;66.34;100418.19;5092410;28;20047;-49
2022/07/14 06:08:47;;;;;;;13.95;3.63;;;;;;;19.53;66.01;100411.78;5092158;28;20088;-48
2022/07/14 06:11:12;;;;;;;8.77;3.22;;;;;;;19.57;66.61;100399.50;5092256;28;20552;-48
2022/07/14 06:13:40;;;;;;;10.40;2.95;;;;;;;19.67;66.56;100407.06;5092509;28;20075;-51
2022/07/14 06:16:07;;;;;;;7.10;2.80;;;;;;;19.75;66.50;100401.34;5092192;28;20036;-49
2022/07/14 06:18:33;;;;;;;8.93;2.63;;;;;;;19.84;65.28;100393.75;5091911;28;20393;-51
2022/07/14 06:20:59;;;;;;;4.63;2.78;;;;;;;19.93;64.80;100398.56;5092415;28;20032;-49
2022/07/14 06:23:24;;;;;;;8.70;2.95;;;;;;;20.03;63.86;100398.03;5092117;28;20044;-48
2022/07/14 06:25:50;;;;;;;11.18;2.75;;;;;;;20.14;63.68;100394.50;5091914;28;20458;-53
2022/07/14 06:28:20;;;;;;;6.03;2.60;;;;;;;20.27;62.56;100394.28;5091892;28;20036;-52
2022/07/14 06:30:46;;;;;;;6.15;2.40;;;;;;;20.40;62.86;100387.00;5074933;28;20032;-49
2022/07/14 06:33:12;;;;;;;3.22;2.40;;;;;;;20.59;61.52;100394.00;5093196;28;20096;-53
2022/07/14 06:35:41;;;;;;;4.88;2.85;;;;;;;20.70;61.27;100392.34;5091748;28;20040;-54
2022/07/14 06:38:07;;;;;;;5.88;2.40;;;;;;;20.81;61.16;100388.81;5091738;28;20064;-54
2022/07/14 06:40:33;;;;;;;7.93;2.70;;;;;;;20.95;60.16;100394.81;5091417;28;20127;-52
2022/07/14 06:42:59;;;;;;;3.90;2.40;;;;;;;20.99;61.25;100387.84;5091777;28;20070;-54
2022/07/14 06:45:39;;;;;;;4.93;2.58;;;;;;;21.06;60.82;100381.25;5090712;28;20107;-53
2022/07/14 06:48:05;;;;;;;5.78;2.25;;;;;;;21.23;59.70;100386.72;5091556;28;20036;-56
2022/07/14 06:50:31;;;;;;;5.90;2.58;;;;;;;21.39;60.31;100390.63;5091521;28;20034;-53
2022/07/14 06:52:57;;;;;;;4.15;2.45;;;;;;;21.50;62.07;100397.03;5093047;28;20392;-55
2022/07/14 06:55:22;;;;;;;4.35;2.35;;;;;;;21.60;60.53;100391.81;5092911;28;20039;-51
2022/07/14 06:57:48;;;;;;;4.40;2.35;;;;;;;21.68;61.74;100389.53;5092712;28;20469;-51
2022/07/14 07:00:14;;;;;;;5.60;1.90;;;;;;;21.84;58.56;100389.81;5092491;28;20040;-53
2022/07/14 07:02:40;;;;;;;3.63;2.20;;;;;;;22.01;57.75;100389.84;5092717;28;20059;-55
2022/07/14 07:07:51;;;;;;;5.28;2.30;;;;;;;22.23;56.23;100385.34;5092700;28;20036;-56
2022/07/14 07:10:17;;;;;;;7.13;2.75;;;;;;;22.31;56.30;100384.97;5074078;28;20481;-53
2022/07/14 07:12:43;;;;;;;4.45;2.33;;;;;;;22.45;55.18;100382.75;5092507;28;20036;-53
2022/07/14 07:15:08;;;;;;;4.93;2.20;;;;;;;22.57;54.69;100380.75;5092483;28;20093;-55
2022/07/14 07:21:22;;;;;;;10.05;2.75;;;;;;;23.07;53.09;100376.28;5101840;28;20140;-53
2022/07/14 07:23:48;;;;;;;2.10;1.90;;;;;;;23.18;52.18;100378.88;5112622;28;20105;-56
2022/07/14 07:26:14;;;;;;;3.50;1.98;;;;;;;23.27;51.85;100373.81;5112553;28;20032;-55
2022/07/14 07:28:40;;;;;;;6.32;2.20;;;;;;;23.32;52.45;100365.72;5112240;28;20044;-51
2022/07/14 07:31:06;;;;;;;4.50;1.98;;;;;;;23.56;50.51;100361.66;5112544;28;20118;-57
2022/07/14 07:33:32;;;;;;;6.43;2.33;;;;;;;23.76;50.40;100365.69;5112440;28;20209;-54
2022/07/14 07:35:59;;;;;;;4.30;2.30;;;;;;;24.09;49.09;100364.63;5112558;28;20043;-55
2022/07/14 07:38:26;;;;;;;3.75;2.00;;;;;;;24.15;48.36;100363.59;5112096;28;20035;-54
2022/07/14 07:40:53;;;;;;;5.57;2.50;;;;;;;24.22;49.09;100360.63;5112263;28;20027;-59
2022/07/14 07:43:21;;;;;;;5.18;2.08;;;;;;;24.41;48.72;100364.63;5094040;28;20035;-52
2022/07/14 07:45:47;;;;;;;5.03;2.20;;;;;;;24.61;47.71;100356.59;5112207;28;20480;-54
2022/07/14 07:48:13;;;;;;;2.55;1.80;;;;;;;24.57;48.33;100350.00;5112172;28;20043;-55
2022/07/14 07:50:42;;;;;;;6.38;1.88;;;;;;;24.77;48.69;100349.31;5112078;28;20031;-56
2022/07/14 07:53:08;;;;;;;8.60;2.10;;;;;;;24.90;48.47;100340.66;5112221;28;20430;-65
2022/07/14 07:55:34;;;;;;;6.85;1.95;;;;;;;25.10;46.38;100342.69;5111649;28;20484;-65
2022/07/14 07:58:00;;;;;;;4.65;1.80;;;;;;;25.16;47.02;100333.44;5111932;28;20045;-66
2022/07/14 08:00:26;;;;;;;5.85;2.10;;;;;;;25.23;47.54;100335.09;5111514;28;20102;-65
2022/07/14 08:02:53;;;;;;;2.90;1.80;;;;;;;25.42;45.93;100328.88;5112000;28;20036;-67
2022/07/14 08:05:21;;;;;;;3.78;2.00;;;;;;;25.55;45.76;100332.97;5111864;28;20085;-65
2022/07/14 08:07:48;;;;;;;4.05;1.75;;;;;;;25.57;45.70;100321.81;5111983;28;20031;-65
2022/07/14 08:10:14;;;;;;;9.20;2.37;;;;;;;25.60;45.65;100313.91;5093586;28;20078;-65
2022/07/14 08:12:40;;;;;;;4.97;1.92;;;;;;;25.69;45.31;100312.28;5112020;28;20549;-66
2022/07/14 08:15:06;;;;;;;4.20;2.00;;;;;;;25.82;43.77;100318.31;5111906;28;20160;-66
2022/07/14 08:17:32;;;;;;;3.47;1.80;;;;;;;26.11;43.89;100313.94;5111828;28;20039;-65
2022/07/14 08:19:58;;;;;;;3.90;1.92;;;;;;;26.43;43.15;100318.31;5111663;28;20438;-66
2022/07/14 08:22:25;;;;;;;3.38;2.15;;;;;;;26.64;41.19;100311.69;5111665;28;20040;-65
2022/07/14 08:24:50;;;;;;;2.70;1.85;;;;;;;26.92;39.81;100301.19;5111740;28;20042;-65
2022/07/14 08:27:16;;;;;;;6.72;1.75;;;;;;;27.11;38.18;100298.66;5111680;28;20111;-66
2022/07/14 08:29:42;;;;;;;4.00;1.52;;;;;;;27.40;38.69;100294.13;5111530;28;20039;-65
2022/07/14 08:32:07;;;;;;;8.40;2.05;;;;;;;27.53;38.79;100296.22;5110870;28;20035;-65
2022/07/14 08:34:33;;;;;;;2.97;1.63;;;;;;;27.56;39.73;100289.38;5111572;28;20043;-65
2022/07/14 08:37:01;;;;;;;3.05;1.55;;;;;;;27.70;38.31;100295.84;5111124;28;20031;-65
2022/07/14 08:39:27;;;;;;;5.70;1.80;;;;;;;27.88;37.79;100285.31;5092968;28;20035;-65
2022/07/14 08:41:56;;;;;;;3.10;1.55;;;;;;;28.06;38.46;100288.16;5111563;28;20036;-66
2022/07/14 08:44:23;;;;;;;5.80;1.80;;;;;;;28.50;34.36;100276.25;5111673;28;20042;-65
2022/07/14 08:46:49;;;;;;;4.18;1.67;;;;;;;28.87;32.71;100267.25;5111524;28;20043;-65
2022/07/14 08:49:16;;;;;;;3.92;1.65;;;;;;;29.05;32.88;100256.66;5111352;28;20031;-66
2022/07/14 08:51:42;;;;;;;2.13;1.60;;;;;;;29.17;33.25;100260.59;5111628;28;20110;-66
2022/07/14 08:54:09;;;;;;;2.23;1.37;;;;;;;29.31;33.06;100251.59;5111681;28;20027;-66
2022/07/14 08:56:36;;;;;;;5.85;1.70;;;;;;;29.57;31.95;100260.28;5111852;28;20683;-66
2022/07/14 08:59:01;;;;;;;5.38;1.63;;;;;;;29.66;31.56;100264.78;5076227;28;20051;-66
2022/07/14 09:01:27;;;;;;;8.20;1.60;;;;;;;29.77;32.29;100264.63;5110815;28;20467;-65
2022/07/14 09:03:53;;;;;;;2.10;1.60;;;;;;;29.97;31.44;100270.56;5111285;28;20039;-66
2022/07/14 09:06:54;;;;;;;3.80;1.55;;;;;;;30.18;31.88;100259.22;5111167;28;20114;-66
2022/07/14 09:09:24;;;;;;;4.45;1.40;;;;;;;30.39;31.19;100260.50;5114061;28;20035;-66
2022/07/14 09:12:04;;;;;;;3.65;1.60;;;;;;;30.30;31.65;100256.00;5114937;28;20138;-66
2022/07/14 09:15:44;;;;;;;4.75;1.42;;;;;;;30.41;33.17;100250.00;5115064;28;20489;-66
2022/07/14 09:17:25;;;;;;;3.53;1.50;;;;;;;30.69;31.85;100259.06;5114584;28;20088;-66
2022/07/14 09:20:11;;;;;;;3.00;1.38;;;;;;;30.96;32.37;100260.16;5114347;28;20027;-67
2022/07/14 09:22:39;;;;;;;7.25;2.03;;;;;;;30.96;32.28;100249.97;5096293;28;20039;-67
2022/07/14 09:25:13;;;;;;;3.30;1.60;;;;;;;31.02;34.59;100251.47;5114788;28;20044;-67
2022/07/14 09:27:40;;;;;;;5.72;1.65;;;;;;;31.38;31.76;100247.94;5114698;28;20042;-67
2022/07/14 09:30:06;;;;;;;3.93;1.70;;;;;;;31.50;31.92;100248.19;5113843;28;20040;-66
2022/07/14 09:32:49;;;;;;;2.53;1.45;;;;;;;31.70;31.83;100254.31;5114570;28;20114;-66
2022/07/14 09:35:17;;;;;;;3.30;1.70;;;;;;;31.79;31.23;100245.00;5114417;28;20045;-67
2022/07/14 09:37:44;;;;;;;3.13;1.55;;;;;;;31.92;32.29;100246.06;5114465;28;20124;-66
2022/07/14 09:40:15;;;;;;;4.05;1.65;;;;;;;31.96;31.28;100249.00;5113979;28;20552;-66
2022/07/14 09:42:48;;;;;;;4.35;1.30;;;;;;;32.07;32.89;100240.13;5114352;28;20039;-66
2022/07/14 09:45:14;;;;;;;4.10;1.80;;;;;;;32.34;29.87;100252.94;5114002;28;20036;-63
2022/07/14 09:48:02;;;;;;;6.93;1.73;;;;;;;32.54;28.81;100247.94;5114266;28;20388;-63
2022/07/14 09:50:31;;;;;;;3.78;1.52;;;;;;;32.70;28.89;100243.63;5113802;28;20036;-63
2022/07/14 09:52:56;;;;;;;2.83;1.55;;;;;;;32.71;29.61;100245.25;5114065;28;20313;-63
2022/07/14 09:55:22;;;;;;;4.03;1.37;;;;;;;32.83;29.35;100239.91;5113826;28;20099;-64
2022/07/14 09:57:48;;;;;;;4.40;1.20;;;;;;;33.12;29.94;100238.50;5095993;28;20043;-63
2022/07/14 10:00:18;;;;;;;2.50;1.60;;;;;;;33.21;28.59;100229.09;5113758;28;20036;-63
2022/07/14 10:02:43;;;;;;;3.03;1.13;;;;;;;33.40;26.94;100233.50;5113868;28;20078;-62
2022/07/14 10:05:09;;;;;;;8.07;1.30;;;;;;;33.54;27.30;100238.84;5114203;28;20063;-63
2022/07/14 10:07:40;;;;;;;3.55;1.48;;;;;;;33.66;27.50;100236.22;5114108;28;20054;-64
2022/07/14 10:10:10;;;;;;;3.17;1.30;;;;;;;33.93;27.45;100226.78;5113761;28;20035;-62
2022/07/14 10:12:38;;;;;;;2.15;1.30;;;;;;;34.13;26.83;100228.00;5114018;28;20500;-63
2022/07/14 10:15:09;;;;;;;2.40;1.23;;;;;;;34.32;27.79;100220.09;5113909;28;20028;-61
2022/07/14 10:17:36;;;;;;;4.07;1.48;;;;;;;34.25;28.67;100220.63;5113773;28;20031;-63
2022/07/14 10:20:03;;;;;;;3.47;1.40;;;;;;;34.47;26.41;100218.75;5113332;28;20044;-63
2022/07/14 10:22:30;;;;;;;3.95;1.17;;;;;;;34.23;27.03;100220.16;5112775;28;20028;-62
2022/07/14 10:24:56;;;;;;;3.03;1.15;;;;;;;34.26;26.77;100204.84;5113613;28;20537;-62
2022/07/14 10:27:22;;;;;;;3.03;1.27;;;;;;;34.75;26.62;100217.09;5113517;28;20030;-63
2022/07/14 10:29:50;;;;;;;1.83;1.10;;;;;;;34.85;25.38;100213.13;5112616;28;20354;-63
2022/07/14 10:32:54;;;;;;;3.15;1.20;;;;;;;35.12;25.42;100197.97;5113519;28;20047;-63
2022/07/14 10:35:41;;;;;;;3.47;1.10;;;;;;;35.40;24.75;100200.16;5113367;28;20043;-62
2022/07/14 10:38:23;;;;;;;3.70;1.30;;;;;;;35.77;25.64;100193.59;5112836;28;20035;-64
2022/07/14 10:40:57;;;;;;;3.60;1.20;;;;;;;35.90;24.60;100197.19;5113444;28;20031;-63
2022/07/14 10:43:24;;;;;;;1.88;1.25;;;;;;;36.08;23.66;100197.81;5113193;28;20392;-63
2022/07/14 10:45:54;;;;;;;1.77;1.20;;;;;;;36.23;23.86;100194.34;5113071;28;20111;-62
2022/07/14 10:48:31;;;;;;;1.63;1.23;;;;;;;36.49;25.60;100187.66;5112793;28;20039;-63
2022/07/14 10:51:16;;;;;;;2.67;1.25;;;;;;;36.45;23.70;100190.31;5112734;28;20036;-63
2022/07/14 10:54:08;;;;;;;3.75;1.13;;;;;;;36.32;24.09;100183.97;5112755;28;20059;-63
2022/07/14 10:56:35;;;;;;;2.25;1.25;;;;;;;36.35;25.83;100183.25;5113132;28;20035;-64
2022/07/14 10:59:25;;;;;;;2.30;1.30;;;;;;;36.54;24.12;100171.59;5112819;28;20043;-63
2022/07/14 11:02:15;;;;;;;1.17;1.00;;;;;;;36.35;23.93;100174.94;5113066;28;20039;-63
2022/07/14 11:04:59;;;;;;;2.47;1.30;;;;;;;36.27;24.90;100172.31;5113052;28;20055;-64
2022/07/14 11:07:40;;;;;;;1.55;1.35;;;;;;;36.41;25.72;100170.81;5112839;28;20122;-64
2022/07/14 11:10:14;;;;;;;2.75;1.35;;;;;;;36.58;23.62;100163.38;5112530;28;20074;-64
2022/07/14 11:13:04;;;;;;;4.32;1.38;;;;;;;36.88;25.83;100161.13;5112702;28;20047;-64
2022/07/14 11:15:43;;;;;;;1.60;1.20;;;;;;;37.25;23.33;100155.44;5112529;28;20023;-64
2022/07/14 11:18:18;;;;;;;4.03;1.30;;;;;;;37.27;23.01;100153.09;5112287;28;20055;-63
2022/07/14 11:20:51;;;;;;;3.38;1.10;;;;;;;37.72;24.60;100149.97;5112269;28;20028;-64
2022/07/14 11:23:21;;;;;;;2.45;1.20;;;;;;;37.34;22.82;100145.00;5112585;28;20056;-64
2022/07/14 11:25:48;;;;;;;2.83;1.10;;;;;;;37.46;23.41;100139.38;5112455;28;20038;-63
2022/07/14 11:28:31;;;;;;;;;;;;;;;37.63;23.33;100141.81;5112803;28;20019;-63
2022/07/14 11:31:12;;;;;;;3.45;1.20;;;;;;;37.37;24.05;100135.97;5111895;28;19915;-64
2022/07/14 11:36:24;;;;;;;;;;;;;;;37.66;21.64;100123.59;5112832;28;20032;-63
2022/07/14 11:38:49;;;;;;;;;;;;;;;37.46;21.98;100131.03;5112634;28;20302;-63
2022/07/14 11:41:15;;;;;;;4.32;1.27;;;;;;;37.48;22.31;100121.16;5112314;28;19916;-63
2022/07/14 11:43:50;;;;;;;2.53;1.30;;;;;;;38.04;23.66;100122.19;5112359;28;20456;-63
2022/07/14 11:46:20;;;;;;;1.83;1.23;;;;;;;37.95;23.99;100117.63;5112309;28;20031;-64
2022/07/14 11:48:53;;;;;;;3.20;1.48;;;;;;;38.19;22.28;100113.78;5112006;28;20033;-64
2022/07/14 11:51:26;;;;;;;5.18;1.23;;;;;;;38.01;23.84;100118.94;5112152;28;20047;-63
2022/07/14 11:54:04;;;;;;;3.30;1.40;;;;;;;37.01;22.88;100121.06;5112164;28;20532;-63
2022/07/14 11:56:30;;;;;;;4.40;1.83;;;;;;;36.13;22.81;100114.44;5112363;28;20499;-62
2022/07/14 11:59:04;;;;;;;4.10;1.40;;;;;;;36.07;23.91;100115.84;5111899;28;20122;-63
2022/07/14 12:01:34;;;;;;;3.67;1.48;;;;;;;36.22;25.91;100112.34;5093934;28;20031;-63
2022/07/14 12:04:07;;;;;;;2.95;1.40;;;;;;;35.49;24.67;100115.06;5112010;28;20043;-63
2022/07/14 12:06:32;;;;;;;1.33;1.23;;;;;;;35.06;26.49;100108.00;5112041;28;20043;-63
2022/07/14 12:08:58;;;;;;;3.33;1.40;;;;;;;34.89;24.88;100106.19;5111624;28;20027;-63
2022/07/14 12:11:23;;;;;;;3.93;1.50;;;;;;;34.82;24.87;100100.38;5112045;28;20039;-63
2022/07/14 12:13:53;;;;;;;6.50;1.40;;;;;;;34.50;25.82;100100.00;5093691;28;20118;-64
2022/07/14 12:16:20;;;;;;;2.03;1.48;;;;;;;34.46;27.41;100098.25;5110982;28;20039;-64
2022/07/14 12:18:46;;;;;;;3.58;1.63;;;;;;;34.42;28.40;100086.22;5110790;28;20043;-64
2022/07/14 12:21:12;;;;;;;3.08;1.00;;;;;;;34.34;27.15;100092.63;5093429;28;20038;-64
2022/07/14 12:23:51;;;;;;;2.70;1.53;;;;;;;35.10;25.44;100089.56;5111609;28;20066;-64
2022/07/14 12:26:18;;;;;;;3.92;1.52;;;;;;;35.57;25.43;100089.22;5111553;28;20289;-63
2022/07/14 12:28:49;;;;;;;3.05;1.55;;;;;;;35.95;24.24;100085.34;5110718;28;20095;-64
2022/07/14 12:31:14;;;;;;;2.58;1.30;;;;;;;35.44;24.93;100080.09;5111087;28;20047;-64
2022/07/14 12:33:41;;;;;;;2.90;1.23;;;;;;;35.89;24.64;100087.50;5111515;28;20133;-64
2022/07/14 12:36:16;;;;;;;2.55;1.10;;;;;;;36.54;23.39;100076.50;5111456;28;20081;-63
2022/07/14 12:38:42;;;;;;;4.95;1.52;;;;;;;37.08;24.10;100076.03;5110796;28;20127;-64
2022/07/14 12:41:09;;;;;;;;;;;;;;;37.47;23.21;100071.53;5111917;28;20402;-63
2022/07/14 12:43:42;;;;;;;2.67;1.20;;;;;;;37.61;21.82;100063.56;5113753;28;19920;-64
2022/07/14 12:46:24;;;;;;;3.30;1.23;;;;;;;37.78;21.58;100056.03;5115124;28;20051;-64
2022/07/14 12:48:49;;;;;;;2.20;1.10;;;;;;;37.98;22.35;100058.53;5114648;28;20078;-64
2022/07/14 12:51:33;;;;;;;2.60;1.20;;;;;;;38.19;22.62;100068.50;5115359;28;20059;-64
2022/07/14 12:54:19;;;;;;;2.38;1.20;;;;;;;38.67;22.54;100047.72;5115365;28;20126;-64
2022/07/14 12:56:51;;;;;;;3.53;1.38;;;;;;;38.76;21.86;100061.44;5115349;28;20039;-64
2022/07/14 12:59:24;;;;;;;2.97;1.30;;;;;;;38.09;22.77;100058.78;5114604;28;20031;-63
2022/07/14 13:01:57;;;;;;;5.88;1.30;;;;;;;38.11;22.16;100063.97;5114928;28;20039;-63
2022/07/14 13:04:39;;;;;;;6.70;1.40;;;;;;;38.36;22.20;100047.84;5115112;28;20040;-64
2022/07/14 13:07:25;;;;;;;4.47;1.50;;;;;;;38.24;21.32;100051.53;5115086;28;20047;-63
2022/07/14 13:10:16;;;;;;;3.00;1.20;;;;;;;37.36;22.40;100053.78;5114455;28;20126;-63
2022/07/14 13:12:50;;;;;;;3.78;1.30;;;;;;;37.30;22.60;100047.69;5107446;28;20062;-63
2022/07/14 13:15:18;;;;;;;4.60;1.30;;;;;;;37.46;23.32;100039.38;5103232;28;20481;-63
2022/07/14 13:17:58;;;;;;;5.75;1.52;;;;;;;37.53;23.32;100036.78;5104204;28;20028;-63
2022/07/14 13:20:49;;;;;;;5.45;2.53;;;;;;;37.54;23.24;100040.34;5103839;28;20089;-63
2022/07/14 13:23:34;;;;;;;3.13;1.58;;;;;;;37.29;22.86;100034.16;5105043;28;20042;-63
2022/07/14 13:26:13;;;;;;;2.60;1.40;;;;;;;36.66;24.00;100032.06;5103953;28;20039;-63
2022/07/14 13:28:44;;;;;;;1.13;1.02;;;;;;;36.39;24.18;100037.25;5098685;28;20040;-64
2022/07/14 13:31:22;;;;;;;2.90;1.42;;;;;;;36.24;24.25;100026.06;5083840;28;20027;-63
2022/07/14 13:33:51;;;;;;;5.55;1.48;;;;;;;35.98;24.91;100020.91;5103413;28;20032;-64
2022/07/14 13:36:18;;;;;;;1.85;1.38;;;;;;;35.89;26.02;100032.91;5085528;28;20209;-63
2022/07/14 13:38:45;;;;;;;1.60;1.35;;;;;;;35.57;26.05;100026.34;5104320;28;20141;-64
2022/07/14 13:41:12;;;;;;;1.73;1.30;;;;;;;35.54;25.67;100027.06;5103629;28;20047;-64
2022/07/14 13:43:40;;;;;;;4.10;1.40;;;;;;;35.34;26.13;100023.22;5103055;28;20135;-64
2022/07/14 13:46:06;;;;;;;2.72;1.50;;;;;;;35.15;27.74;100022.94;5104624;28;20540;-64
2022/07/14 13:48:32;;;;;;;3.78;1.42;;;;;;;35.19;27.84;100018.31;5103132;28;20028;-63
2022/07/14 13:53:41;;;;;;;2.83;1.45;;;;;;;34.93;27.38;100024.16;5104257;28;20082;-64
2022/07/14 13:56:07;;;;;;;1.53;1.43;;;;;;;34.80;27.19;100020.50;5102752;28;20072;-64
2022/07/14 13:58:32;;;;;;;1.90;1.30;;;;;;;34.71;27.69;100011.50;5102891;28;20035;-64
2022/07/14 14:00:59;;;;;;;1.53;1.40;;;;;;;34.52;28.16;100011.19;5104389;28;20016;-65
2022/07/14 14:03:26;;;;;;;2.30;1.30;;;;;;;34.62;29.35;100010.75;5102405;28;20048;-66
2022/07/14 14:05:56;;;;;;;2.88;1.30;;;;;;;34.57;28.40;99999.13;5103706;28;20032;-65
2022/07/14 14:08:23;;;;;;;1.77;1.52;;;;;;;34.36;29.68;100004.63;5103955;28;20052;-65
2022/07/14 14:10:49;;;;;;;3.25;1.63;;;;;;;34.37;30.45;99995.22;5102597;28;20119;-65
2022/07/14 14:13:15;;;;;;;;;;;;;;;34.22;29.05;100000.19;5103123;28;20561;-65
2022/07/14 14:15:40;;;;;;;2.87;1.63;;;;;;;34.26;30.02;99994.78;5101691;28;19915;-64
2022/07/14 14:18:06;;;;;;;3.20;1.30;;;;;;;34.16;30.31;99993.22;5093195;28;20442;-64
2022/07/14 14:20:31;;;;;;;4.17;1.67;;;;;;;34.21;29.93;99995.00;5092946;28;20516;-65
2022/07/14 14:22:57;;;;;;;2.67;1.67;;;;;;;34.08;27.57;99985.03;5093249;28;20039;-65
2022/07/14 14:25:22;;;;;;;1.50;1.20;;;;;;;34.05;28.81;99986.53;5093475;28;20040;-64
2022/07/14 14:27:47;;;;;;;3.03;1.60;;;;;;;34.14;29.58;99992.78;5093369;28;20040;-64
2022/07/14 14:30:13;;;;;;;2.90;1.97;;;;;;;33.83;31.02;99995.06;5093158;28;20032;-64
2022/07/14 14:32:38;;;;;;;4.40;2.00;;;;;;;33.77;31.61;99988.94;5093453;28;20485;-64
2022/07/14 14:35:04;;;;;;;5.60;2.00;;;;;;;33.08;32.61;99984.53;5093332;28;20040;-64
2022/07/14 14:37:30;;;;;;;6.10;2.23;;;;;;;33.05;33.75;99992.66;5093147;28;20062;-64
2022/07/14 14:39:55;;;;;;;8.17;1.83;;;;;;;33.02;33.84;99991.38;5092866;28;20047;-64
2022/07/14 14:42:21;;;;;;;4.20;2.50;;;;;;;32.81;33.99;99995.94;5093139;28;20032;-63
2022/07/14 14:44:47;;;;;;;5.60;2.13;;;;;;;32.47;34.05;100003.09;5093031;28;20035;-64
2022/07/14 14:47:13;;;;;;;5.63;3.10;;;;;;;32.13;33.99;100003.88;5074837;28;20040;-63
2022/07/14 14:49:52;;;;;;;6.60;2.17;;;;;;;32.28;34.12;100008.13;5092723;28;20209;-63
2022/07/14 14:52:19;;;;;;;5.05;2.25;;;;;;;32.33;34.16;100002.47;5092882;28;20048;-64
2022/07/14 14:54:44;;;;;;;5.60;2.15;;;;;;;32.22;34.12;100010.22;5092763;28;20043;-64
2022/07/14 14:57:10;;;;;;;5.40;2.47;;;;;;;32.25;33.66;99995.78;5093038;28;20050;-65
2022/07/14 14:59:35;;;;;;;4.90;2.10;;;;;;;32.26;34.33;99996.59;5092728;28;20112;-65
2022/07/14 15:02:00;;;;;;;5.37;1.90;;;;;;;32.28;34.16;99995.16;5092735;28;20036;-64
2022/07/14 15:04:26;;;;;;;2.58;1.95;;;;;;;32.01;34.24;99995.44;5092866;28;20038;-70
2022/07/14 15:06:51;;;;;;;5.70;2.50;;;;;;;32.11;34.69;99984.94;5091962;28;20481;-64
2022/07/14 15:09:17;;;;;;;5.73;2.70;;;;;;;31.98;34.89;99999.66;5092374;28;20039;-65
2022/07/14 15:11:42;;;;;;;4.07;2.50;;;;;;;32.05;35.39;99991.75;5092390;28;20081;-64
2022/07/14 15:14:08;;;;;;;5.63;2.70;;;;;;;31.89;36.10;99996.09;5092548;28;20036;-64
2022/07/14 15:16:33;;;;;;;4.55;2.50;;;;;;;31.85;36.05;100003.38;5092335;28;20067;-64
2022/07/14 15:18:59;;;;;;;6.60;2.63;;;;;;;31.73;35.94;100005.91;5092237;28;20032;-64
2022/07/14 15:21:24;;;;;;;4.32;2.80;;;;;;;31.45;36.27;99999.84;5092358;28;20378;-63
2022/07/14 15:23:49;;;;;;;3.90;2.35;;;;;;;31.41;37.14;100016.16;5092273;28;20048;-64
2022/07/14 15:26:15;;;;;;;7.18;2.78;;;;;;;31.36;36.76;100009.97;5092286;28;20085;-64
2022/07/14 15:28:40;;;;;;;2.75;2.20;;;;;;;31.46;38.07;100012.47;5092043;28;20040;-65
2022/07/14 15:31:06;;;;;;;7.32;3.10;;;;;;;31.31;37.46;100017.25;5092285;28;20420;-65
2022/07/14 15:33:31;;;;;;;3.90;2.58;;;;;;;31.17;37.49;100011.03;5092301;28;20047;-65
2022/07/14 15:35:57;;;;;;;4.43;3.03;;;;;;;31.22;37.55;99999.03;5092255;28;20093;-65
2022/07/14 15:38:22;;;;;;;5.50;3.28;;;;;;;31.17;37.54;100021.19;5073598;28;20557;-65
2022/07/14 15:43:32;;;;;;;6.90;3.03;;;;;;;31.14;37.36;100016.31;5092057;28;20040;-65
2022/07/14 15:45:58;;;;;;;7.53;3.30;;;;;;;30.90;38.06;100016.66;5092004;28;20134;-64
2022/07/14 15:48:25;;;;;;;5.22;2.85;;;;;;;30.77;37.90;100005.44;5091693;28;20028;-68
2022/07/14 15:50:50;;;;;;;6.80;2.90;;;;;;;30.85;38.00;100014.88;5091919;28;20040;-64
2022/07/14 15:53:16;;;;;;;3.97;3.10;;;;;;;30.69;38.25;100016.38;5073677;28;20040;-65
2022/07/14 15:55:41;;;;;;;7.05;2.80;;;;;;;30.58;38.43;100017.72;5091781;28;20370;-65
2022/07/14 15:58:07;;;;;;;5.07;3.13;;;;;;;30.46;38.38;100007.28;5091717;28;20055;-65
2022/07/14 16:00:33;;;;;;;5.75;2.90;;;;;;;30.53;38.90;100007.69;5091756;28;20036;-63
2022/07/14 16:02:59;;;;;;;7.43;3.53;;;;;;;30.40;38.12;100014.03;5091847;28;20046;-63
2022/07/14 16:05:24;;;;;;;7.70;3.03;;;;;;;30.35;37.95;100009.47;5091676;28;20035;-68
2022/07/14 16:07:50;;;;;;;5.72;3.17;;;;;;;30.23;37.78;100010.00;5091744;28;20071;-67
2022/07/14 16:10:15;;;;;;;5.00;3.08;;;;;;;30.27;37.46;100016.50;5091398;28;20063;-67
2022/07/14 16:12:41;;;;;;;5.93;2.78;;;;;;;30.02;37.21;100013.50;5091802;28;20083;-67
2022/07/14 16:15:10;;;;;;;7.53;2.78;;;;;;;30.28;38.17;100028.31;5091676;28;20073;-67